Station: Hawker

  Atmospheric Gas Attenuation - ITU Rec 676-11   --------------- db/100km ---------------
Date Time Temp RH % AH g/m3 Dew Point Wind Direction Speed kph Gust kph Barometer mB Rainfall Since 9am 24GHz 47GHz 76GHz 122GHz 134GHz 241GHz
01 09:00 28.5 37 10.34 12.5 13 1011.3 0 22.5 24.4 39.0 102.7 101.1 349.6
29 09:00 22 23 4.46 0.2 0 1016.6 0 10.6 18.2 22.3 57.8 43.5 146.5
28 09:00 20.5 45 8.01 8.2 2 1019.3 0 18.0 23.4 34.7 90.9 83.7 287.9
26 09:00 13.5 67 7.84 7.5 17 1015.9 2 18.0 24.9 37.0 97.1 89.0 305.7
25 09:00 19.5 89 14.94 17.6 35 1007.5 13 32.8 34.7 63.0 166.5 177.0 613.7
24 09:00 18 98 15.05 17.7 4 1009.4 2 33.2 35.6 64.9 171.5 182.5 632.7
22 09:00 18.5 43 6.8 5.9 11 1018.3 0 15.6 22.1 31.2 81.4 71.4 244.4
21 09:00 14 62 7.48 6.9 17 1017.7 2 17.2 24.2 35.5 92.9 84.0 288.1
19 09:00 20.6 76 13.6 16.3 9 1013 0 29.9 32.1 56.5 149.1 155.7 539.7
18 09:00 28.1 12 3.28 -3.4 37 1013.4 0 8.0 15.6 17.4 44.8 29.5 98.0
17 09:00 19 31 5.05 1.6 2 1019.5 0 11.9 19.6 25.1 65.2 51.5 174.4
16 09:00 14.1 61 7.4 6.8 7 1019.6 0 17.0 24.1 35.2 92.1 83.0 284.6
15 09:00 12.5 50 5.5 2.3 15 1018.6 0 13.0 21.6 28.7 74.8 61.1 207.3
14 09:00 10.5 74 7.18 6.1 15 1016 3 16.7 24.6 35.8 93.7 83.8 286.8
12 09:00 11.1 83 8.36 8.3 11 1006.9 25 19.2 26.1 39.9 104.8 98.1 337.2
11 09:00 10.9 77 7.66 7 26 999.5 15 17.7 24.7 36.8 96.7 88.4 303.3
10 09:00 15.5 60 7.93 7.9 22 1008.5 0 18.1 24.2 36.2 94.8 87.4 300.2
09 09:00 19 39 6.35 4.7 0 1010.8 0 14.6 21.1 29.1 76.1 65.4 223.4
08 09:00 17.7 43 6.49 5 11 1012.3 0 14.9 21.6 30.2 78.8 68.1 232.9
07 09:00 18 76 11.67 13.7 13 1008.7 0 25.9 29.5 49.8 131.3 133.2 460.7
06 09:00 28.6 23 6.46 5.9 26 1007.3 0 14.5 19.1 26.2 68.4 59.1 202.3
05 09:00 23.5 32 6.77 6.1 13 1016.5 0 15.3 20.8 29.2 76.2 66.7 228.5
04 09:00 18 45 6.91 5.9 2 1022.2 0.8 15.8 22.5 31.9 83.3 73.4 251.3
03 09:00 20 98 16.93 19.7 11 1015.6 0 37.0 38.5 72.4 191.4 207.4 719.4
01 09:00 20.9 18 3.28 -4 6 1021.5 0 8.2 17.1 19.2 49.3 32.4 107.3
31 09:00 15.9 33 4.47 -0.1 13 1024.8 0 10.8 19.7 24.3 62.9 47.3 159.2
29 09:00 13.5 70 8.19 8.2 9 1013.7 0 18.7 25.3 38.3 100.5 93.4 321.0
28 09:00 25.1 56 12.96 15.9 9 1003.8 4 28.2 29.1 50.3 132.8 137.5 476.6
27 09:00 24.4 11 2.45 -7.9 11 1010.6 0 6.3 15.2 15.8 40.5 23.2 75.2
26 09:00 20.5 17 3.02 -5.4 15 1017.5 0 7.6 16.7 18.4 47.2 29.9 98.5
25 09:00 15.9 38 5.15 1.6 2 1021.9 0 12.2 20.5 26.5 68.8 54.7 185.4
24 09:00 13.9 50 5.99 3.7 22 1023.5 0 14.0 22.2 30.2 78.6 66.1 225.1
23 09:00 15.9 51 6.91 5.9 17 1020.4 0 15.9 23.0 32.7 85.3 75.2 257.5
22 09:00 21.5 58 10.94 12.9 2 1013.8 0 24.2 27.4 45.0 118.4 118.3 408.9
21 09:00 20.6 67 11.99 14.3 15 1015.2 0.4 26.4 29.4 49.8 131.3 133.7 462.8
20 09:00 18.8 96 15.46 18.2 19 1014.6 0 34.0 36.2 66.4 175.5 187.5 650.2
19 09:00 19.4 73 12.18 14.5 17 1019.7 0 26.9 30.3 51.6 136.0 138.9 480.8
18 09:00 22.6 35 7.03 6.7 13 1014.6 0 15.9 21.3 30.3 79.2 70.2 240.7
17 09:00 17.7 43 6.49 5 13 1014.5 0 14.9 21.7 30.2 78.9 68.3 233.3
15 09:00 12.5 75 8.25 8.3 17 1010.6 9 18.9 25.6 38.9 102.1 95.2 327.1
14 09:00 10.2 91 8.66 8.8 15 1002.2 4 19.9 26.6 41.4 108.8 103.0 354.2
13 09:00 13.5 52 6.08 3.8 28 1008.9 0 14.2 21.9 30.1 78.6 66.6 227.2
12 09:00 15 26 3.33 -4 6 1014.1 0 8.4 18.0 20.5 52.8 35.0 116.1
11 09:00 11.7 45 4.71 0.2 11 1019.1 0 11.4 20.7 26.2 68.0 52.3 176.5
10 09:00 11 80 8.01 7.8 24 1014.6 0 18.5 25.8 38.9 101.9 94.1 323.1
09 09:00 23 20 4.11 -1.2 2 1012.6 0 9.8 17.4 20.9 54.0 39.3 132.1
08 09:00 18 28 4.3 -0.5 11 1016 0 10.3 18.7 22.9 59.2 43.9 147.6
06 09:00 18.9 17 2.75 -6.4 7 1012.1 0 7.1 16.5 17.8 45.7 27.6 90.5
05 09:00 11.5 65 6.71 5.1 2 1017.8 0 15.7 23.7 33.6 87.8 76.8 262.5
04 09:00 13.4 57 6.63 5.2 22 1010.6 0 15.4 22.8 32.2 84.3 73.5 251.3
01 09:00 14 67 8.08 8.1 17 1013 0 18.5 25.0 37.6 98.7 91.3 313.8
30 09:00 15 68 8.72 9.3 11 1011.3 0 19.8 25.7 39.6 103.9 98.3 338.3
29 09:00 18 49 7.53 7.3 13 1011.3 0 17.1 23.0 33.7 88.3 80.0 274.7
28 09:00 23.3 19 3.97 -1.3 11 1010.5 0 9.5 17.1 20.3 52.6 37.7 126.6
26 09:00 15 31 3.98 -2.1 22 1023.6 0 9.8 19.1 22.9 59.1 42.3 141.7
25 09:00 13.2 44 5.05 1.2 11 1022.6 0 12.1 21.0 27.0 70.2 55.4 187.6
24 09:00 19.8 23 3.93 -2 19 1017.6 0 9.5 18.0 21.3 55.0 39.2 131.3
23 09:00 17.4 42 6.22 4.5 6 1024.2 0 14.4 21.7 29.8 77.5 66.0 225.1
22 09:00 11.6 65 6.76 5.4 0 1031.7 0 15.8 24.3 34.3 89.5 78.3 267.5
21 09:00 10 60 5.64 2.6 17 1032.9 0.3 13.4 23.0 30.7 79.8 65.6 222.7
20 09:00 12 59 6.29 4.4 26 1024.4 0 14.7 23.2 32.1 83.6 71.5 243.7
19 09:00 16.6 31 4.38 -0.7 7 1024.6 0 10.6 19.4 23.8 61.5 45.9 154.4
18 09:00 13.8 41 4.89 0.8 19 1022.9 0.2 11.7 20.6 26.3 68.2 53.2 179.8
17 09:00 24.9 10 2.29 -8.8 22 1010 0 6.0 14.9 15.3 39.1 21.6 69.7
16 09:00 19 24 3.91 -1.7 13 1019.7 0 9.5 18.1 21.5 55.5 39.5 132.1
15 09:00 16.4 35 4.88 1.1 6 1025.1 0 11.6 20.1 25.5 66.2 51.5 174.2
14 09:00 14.5 38 4.73 0.6 0 1026.9 0 11.4 20.4 25.7 66.5 51.1 172.5
13 09:00 11.8 49 5.16 1.6 26 1024.9 0 12.4 21.5 28.0 72.7 57.9 195.9
11 09:00 22.8 8 1.63 -12.7 24 1015.1 0 4.7 14.7 14.0 35.6 16.3 50.8
10 09:00 21.8 13 2.49 -8.1 6 1024.4 0 6.5 16.1 16.8 42.8 24.6 79.8
09 09:00 19.8 22 3.76 -2.2 20 1029.1 0 9.2 18.1 21.1 54.3 37.9 126.6
07 09:00 14 59 7.12 6.1 4 1035.6 0 16.4 24.3 34.9 90.9 80.7 276.3
05 09:00 10.3 93 8.91 9.3 13 1030.5 0 20.4 28.1 43.7 114.7 108.8 374.3
03 09:00 12.4 82 8.96 9.5 19 1016.2 0 20.4 27.0 42.1 110.6 105.3 362.5
02 09:00 27.1 20 5.18 2.2 48 1015.4 0 11.9 18.1 23.1 59.9 47.8 162.3
01 09:00 22.1 19 3.71 -2.6 9 1022.9 0 9.0 17.4 20.2 52.1 36.2 120.8
31 09:00 20.4 22 3.89 -1.6 26 1018 0 9.4 17.8 21.0 54.3 38.5 129.0
29 09:00 10 73 6.86 5.5 0 1017.2 0 16.0 24.3 34.8 91.0 80.2 274.2
28 09:00 13.9 27 3.24 -4.5 15 1015.2 0 8.2 18.1 20.5 52.8 34.6 114.4
27 09:00 12.6 47 5.2 1.6 9 1018.9 0 12.4 21.2 27.6 71.8 57.4 194.6
26 09:00 9.8 73 6.77 5.2 6 1023 0 15.8 24.4 34.8 90.9 79.6 272.1
25 09:00 9.1 64 5.68 2.8 7 1027.6 0 13.5 23.1 31.0 80.7 66.5 225.9
24 09:00 8.5 60 5.12 1.2 19 1028.2 0 12.4 22.4 29.1 75.6 60.0 202.9
23 09:00 9.4 61 5.52 2.4 17 1017.7 0 13.2 22.4 29.9 77.9 63.7 216.2
22 09:00 15.5 45 5.95 3.8 0 1015.8 0 13.9 21.5 29.2 76.1 63.9 217.6
21 09:00 15.4 65 8.54 8.8 0 1019.8 0 19.4 25.6 39.1 102.4 96.1 330.7
19 09:00 14 51 6.15 4.1 0 1022.1 0 14.4 22.4 30.7 80.0 67.9 231.3
18 09:00 11 74 7.41 6.6 0 1026.3 0 17.2 25.3 36.9 96.6 87.0 298.1
17 09:00 10.4 73 7.04 5.9 0 1029.7 0 16.4 25.0 35.9 93.7 83.0 284.0
16 09:00 10.9 64 6.37 4.5 0 1031.5 0 15.0 23.8 33.1 86.2 73.9 252.2
15 09:00 10.5 64 6.21 4 0 1028.7 0 14.6 23.6 32.5 84.8 72.1 245.7
14 09:00 12 65 6.93 5.6 0 1029.6 0 16.1 24.3 34.7 90.7 79.9 273.3
13 09:00 9 87 7.67 6.9 0 1031.7 0 17.8 26.5 39.2 102.5 93.3 319.6
12 09:00 10 80 7.52 6.8 4 1031.5 0 17.4 25.9 38.1 99.6 90.0 308.4
11 09:00 18.5 23 3.64 -3.1 22 1016.7 0 9.0 17.8 20.7 53.3 36.8 122.8
10 09:00 17 31 4.49 -0.2 22 1021 0 10.8 19.3 23.9 61.9 46.7 157.3
09 09:00 10.5 70 6.79 5.3 0 1026.5 0 15.9 24.4 34.7 90.6 79.4 271.4
08 09:00 11 69 6.91 5.6 2 1031 0 16.1 24.6 35.1 91.7 80.8 276.2
07 09:00 11.5 82 8.47 8.5 0 1031.2 0 19.4 27.1 41.3 108.0 101.1 347.4
05 09:00 10.6 83 8.1 7.9 0 1029.4 0.1 18.7 26.6 40.1 105.0 97.0 333.1

Last Refresh: 03-Dec-2021 09:38:19

Bureau of Meteorology